QFA8 KDFW-YMML
Flight info
| Callsign | QFA8 |
|---|---|
| Flight time | N/A |
| Altitude | 34000 |
| Route | JPOOL8 SAT DCT LRD DCT EMIRA DCT ZLO DCT 1648N10631W 1436N10817W 1156N11050W 0901N11400W 0606N11712W 0552N11727W 0325N12000W 0244N12042W 0118S12441W 0416S12708W 0814S13010W 0904S13048W 1244S13334W 1633S13638W 2022S13931W 2333S14215W 2713S14529W 3000S14802W 3036S14836W 3248S15112W 3412S15321W 3658S15856W 3806S16204W 3951S16837W 4050S17507W 4113S17738E 4114S17704E 4112S17059E 4111S17025E 4046S16437E 4034S16300E 4010S16017E 3930S15639E DCT GEMAC Q302 BOOIN |
| Aircraft | A388/J-SADE2E3FGHIJ3J4J5M1RWXY/LB1D1 |
Departure
| Time | 2026-05-01 10:42 |
|---|---|
| Airport | Dallas Fort Worth International Airport (KDFW) |
Arrival
| Time | N/A |
|---|---|
| Airport | Melbourne Airport (YMML) |
| Time | Latitude | Longitude | Altitude | Speed | Heading |
|---|---|---|---|---|---|
| 2026-05-01 10:22 | 32.89506 | -97.04570 | 603 ft | 0 kts | 46° |
| 2026-05-01 10:28 | 32.89495 | -97.04584 | 603 ft | 3 kts | 46° |
| 2026-05-01 10:28 | 32.89483 | -97.04599 | 603 ft | 3 kts | 46° |
| 2026-05-01 10:29 | 32.89459 | -97.04631 | 603 ft | 3 kts | 53° |
| 2026-05-01 10:29 | 32.89450 | -97.04649 | 603 ft | 3 kts | 58° |
| 2026-05-01 10:30 | 32.89435 | -97.04688 | 603 ft | 3 kts | 70° |
| 2026-05-01 10:30 | 32.89425 | -97.04729 | 603 ft | 3 kts | 76° |
| 2026-05-01 10:31 | 32.89423 | -97.04747 | 603 ft | 1 kts | 95° |
| 2026-05-01 10:31 | 32.89426 | -97.04757 | 603 ft | 1 kts | 122° |
| 2026-05-01 10:32 | 32.89438 | -97.04765 | 603 ft | 1 kts | 165° |
| 2026-05-01 10:32 | 32.89443 | -97.04765 | 603 ft | 0 kts | 181° |
| 2026-05-01 10:33 | 32.89430 | -97.04765 | 603 ft | 2 kts | 181° |
| 2026-05-01 10:34 | 32.89410 | -97.04772 | 603 ft | 6 kts | 221° |
| 2026-05-01 10:34 | 32.89403 | -97.04789 | 603 ft | 5 kts | 265° |
| 2026-05-01 10:34 | 32.89402 | -97.04850 | 603 ft | 7 kts | 266° |
| 2026-05-01 10:35 | 32.89359 | -97.04897 | 603 ft | 4 kts | 168° |
| 2026-05-01 10:35 | 32.89330 | -97.04891 | 603 ft | 4 kts | 175° |
| 2026-05-01 10:35 | 32.89304 | -97.04891 | 603 ft | 4 kts | 181° |
| 2026-05-01 10:35 | 32.89278 | -97.04891 | 603 ft | 6 kts | 180° |
| 2026-05-01 10:36 | 32.89162 | -97.04891 | 603 ft | 8 kts | 180° |
| 2026-05-01 10:36 | 32.89113 | -97.04892 | 603 ft | 6 kts | 180° |
| 2026-05-01 10:36 | 32.89052 | -97.04892 | 603 ft | 15 kts | 180° |
| 2026-05-01 10:37 | 32.88950 | -97.04892 | 603 ft | 14 kts | 180° |
| 2026-05-01 10:37 | 32.88782 | -97.04893 | 603 ft | 16 kts | 180° |
| 2026-05-01 10:37 | 32.88658 | -97.04893 | 603 ft | 17 kts | 180° |
| 2026-05-01 10:38 | 32.88547 | -97.04894 | 603 ft | 16 kts | 180° |
| 2026-05-01 10:38 | 32.88440 | -97.04895 | 603 ft | 14 kts | 180° |
| 2026-05-01 10:38 | 32.88340 | -97.04896 | 603 ft | 19 kts | 180° |
| 2026-05-01 10:38 | 32.88205 | -97.04896 | 603 ft | 18 kts | 180° |
| 2026-05-01 10:39 | 32.88085 | -97.04896 | 603 ft | 16 kts | 180° |
| 2026-05-01 10:39 | 32.87979 | -97.04896 | 603 ft | 14 kts | 180° |
| 2026-05-01 10:39 | 32.87915 | -97.04946 | 603 ft | 10 kts | 252° |
| 2026-05-01 10:39 | 32.87914 | -97.05028 | 603 ft | 10 kts | 272° |
| 2026-05-01 10:40 | 32.87934 | -97.05076 | 603 ft | 6 kts | 318° |
| 2026-05-01 10:40 | 32.87968 | -97.05093 | 603 ft | 5 kts | 351° |
| 2026-05-01 10:40 | 32.88012 | -97.05093 | 603 ft | 15 kts | 1° |
| 2026-05-01 10:40 | 32.88328 | -97.05093 | 603 ft | 78 kts | 0° |
| 2026-05-01 10:41 | 32.89054 | -97.05086 | 603 ft | 130 kts | 0° |
| 2026-05-01 10:41 | 32.90108 | -97.05080 | 603 ft | 166 kts | 359° |
| 2026-05-01 10:41 | 32.92629 | -97.05096 | 945 ft | 184 kts | 0° |
| 2026-05-01 10:42 | 32.93929 | -97.05141 | 1164 ft | 193 kts | 359° |
| 2026-05-01 10:42 | 32.95281 | -97.05369 | 1379 ft | 203 kts | 342° |
| 2026-05-01 10:42 | 32.96568 | -97.06231 | 1719 ft | 222 kts | 322° |
| 2026-05-01 10:42 | 32.97601 | -97.07674 | 2166 ft | 235 kts | 302° |
| 2026-05-01 10:43 | 32.98210 | -97.09495 | 2758 ft | 246 kts | 283° |
| 2026-05-01 10:43 | 32.98327 | -97.11579 | 3040 ft | 260 kts | 265° |
| 2026-05-01 10:43 | 32.97860 | -97.13715 | 3328 ft | 274 kts | 245° |
| 2026-05-01 10:43 | 32.96894 | -97.15715 | 3678 ft | 282 kts | 233° |
| 2026-05-01 10:44 | 32.95439 | -97.17269 | 4164 ft | 283 kts | 205° |
| 2026-05-01 10:44 | 32.93574 | -97.17887 | 4737 ft | 277 kts | 180° |
| 2026-05-01 10:44 | 32.91637 | -97.17893 | 5231 ft | 280 kts | 176° |
| 2026-05-01 10:44 | 32.89688 | -97.17830 | 5748 ft | 282 kts | 178° |
| 2026-05-01 10:45 | 32.87718 | -97.17790 | 6275 ft | 284 kts | 179° |
| 2026-05-01 10:45 | 32.85736 | -97.17783 | 6779 ft | 286 kts | 180° |
| 2026-05-01 10:45 | 32.83738 | -97.17799 | 7268 ft | 288 kts | 181° |
| 2026-05-01 10:45 | 32.81753 | -97.17825 | 7749 ft | 290 kts | 181° |
| 2026-05-01 10:46 | 32.79732 | -97.17855 | 8247 ft | 292 kts | 181° |
| 2026-05-01 10:46 | 32.77688 | -97.17886 | 8723 ft | 294 kts | 182° |
| 2026-05-01 10:46 | 32.75632 | -97.17916 | 9215 ft | 297 kts | 182° |
| 2026-05-01 10:46 | 32.73561 | -97.17947 | 9674 ft | 299 kts | 182° |
| 2026-05-01 10:47 | 32.71469 | -97.17977 | 10152 ft | 302 kts | 182° |
| 2026-05-01 10:47 | 32.69319 | -97.18009 | 10312 ft | 316 kts | 183° |
| 2026-05-01 10:47 | 32.67078 | -97.18043 | 10427 ft | 329 kts | 184° |
| 2026-05-01 10:47 | 32.64744 | -97.18080 | 10553 ft | 342 kts | 184° |
| 2026-05-01 10:48 | 32.62325 | -97.18117 | 10750 ft | 351 kts | 184° |
| 2026-05-01 10:48 | 32.59879 | -97.18150 | 11178 ft | 352 kts | 184° |
| 2026-05-01 10:48 | 32.57428 | -97.18182 | 11659 ft | 352 kts | 185° |
| 2026-05-01 10:48 | 32.54971 | -97.18215 | 12116 ft | 353 kts | 186° |
| 2026-05-01 10:49 | 32.52502 | -97.18250 | 12541 ft | 355 kts | 186° |
| 2026-05-01 10:49 | 32.50028 | -97.18286 | 13025 ft | 356 kts | 186° |
| 2026-05-01 10:49 | 32.47582 | -97.18321 | 13480 ft | 356 kts | 187° |
| 2026-05-01 10:49 | 32.45100 | -97.18356 | 13918 ft | 358 kts | 187° |
| 2026-05-01 10:50 | 32.42600 | -97.18393 | 14279 ft | 359 kts | 188° |
| 2026-05-01 10:50 | 32.40095 | -97.18430 | 14640 ft | 361 kts | 187° |
| 2026-05-01 10:50 | 32.37577 | -97.18466 | 14993 ft | 362 kts | 188° |
| 2026-05-01 10:50 | 32.35061 | -97.18501 | 15371 ft | 363 kts | 188° |
| 2026-05-01 10:51 | 32.32525 | -97.18537 | 15756 ft | 365 kts | 189° |
| 2026-05-01 10:51 | 32.29974 | -97.18574 | 16122 ft | 366 kts | 189° |
| 2026-05-01 10:51 | 32.27446 | -97.18705 | 16516 ft | 361 kts | 195° |
| 2026-05-01 10:51 | 32.24945 | -97.19059 | 16861 ft | 362 kts | 196° |
| 2026-05-01 10:52 | 32.22434 | -97.19406 | 17253 ft | 363 kts | 196° |
| 2026-05-01 10:52 | 32.19921 | -97.19746 | 17614 ft | 364 kts | 197° |
| 2026-05-01 10:52 | 32.17397 | -97.20085 | 17979 ft | 365 kts | 197° |
| 2026-05-01 10:52 | 32.14869 | -97.20422 | 18329 ft | 366 kts | 197° |
| 2026-05-01 10:53 | 32.12329 | -97.20766 | 18494 ft | 372 kts | 195° |
| 2026-05-01 10:53 | 32.09774 | -97.21110 | 18697 ft | 375 kts | 195° |
| 2026-05-01 10:53 | 32.07184 | -97.21453 | 19088 ft | 374 kts | 195° |
| 2026-05-01 10:53 | 32.04599 | -97.21795 | 19425 ft | 373 kts | 195° |
| 2026-05-01 10:54 | 32.02019 | -97.22138 | 19749 ft | 373 kts | 195° |
| 2026-05-01 10:54 | 31.99435 | -97.22483 | 20079 ft | 373 kts | 195° |
| 2026-05-01 10:54 | 31.96856 | -97.22827 | 20408 ft | 373 kts | 195° |
| 2026-05-01 10:54 | 31.94269 | -97.23172 | 20714 ft | 374 kts | 195° |
| 2026-05-01 10:55 | 31.91682 | -97.23517 | 21026 ft | 374 kts | 195° |
| 2026-05-01 10:55 | 31.89096 | -97.23861 | 21356 ft | 374 kts | 195° |
| 2026-05-01 10:55 | 31.86512 | -97.24205 | 21629 ft | 374 kts | 195° |
| 2026-05-01 10:55 | 31.83919 | -97.24553 | 21875 ft | 376 kts | 193° |
| 2026-05-01 10:56 | 31.81314 | -97.24899 | 22155 ft | 376 kts | 193° |
| 2026-05-01 10:56 | 31.78713 | -97.25244 | 22465 ft | 377 kts | 193° |
| 2026-05-01 10:56 | 31.76105 | -97.25590 | 22762 ft | 377 kts | 193° |
| 2026-05-01 10:56 | 31.73533 | -97.25930 | 23045 ft | 377 kts | 193° |
| 2026-05-01 10:57 | 31.70922 | -97.26277 | 23307 ft | 378 kts | 192° |
| 2026-05-01 10:57 | 31.68310 | -97.26644 | 23583 ft | 377 kts | 195° |
| 2026-05-01 10:57 | 31.65762 | -97.27279 | 23813 ft | 373 kts | 201° |
| 2026-05-01 10:57 | 31.63309 | -97.28238 | 24012 ft | 370 kts | 206° |
| 2026-05-01 10:58 | 31.60926 | -97.29394 | 24217 ft | 371 kts | 207° |
| 2026-05-01 10:58 | 31.58539 | -97.30533 | 24431 ft | 371 kts | 206° |
| 2026-05-01 10:58 | 31.56129 | -97.31671 | 24605 ft | 374 kts | 206° |
| 2026-05-01 10:58 | 31.53710 | -97.32807 | 24842 ft | 374 kts | 206° |
| 2026-05-01 10:59 | 31.51296 | -97.33941 | 25064 ft | 375 kts | 206° |
| 2026-05-01 10:59 | 31.48871 | -97.35081 | 25283 ft | 376 kts | 206° |
| 2026-05-01 10:59 | 31.46442 | -97.36222 | 25513 ft | 376 kts | 207° |
| 2026-05-01 10:59 | 31.44009 | -97.37366 | 25742 ft | 377 kts | 207° |
| 2026-05-01 11:00 | 31.41574 | -97.38511 | 25979 ft | 378 kts | 207° |
| 2026-05-01 11:00 | 31.39137 | -97.39655 | 26229 ft | 378 kts | 207° |
| 2026-05-01 11:00 | 31.36691 | -97.40802 | 26474 ft | 379 kts | 207° |
| 2026-05-01 11:00 | 31.34240 | -97.41953 | 26721 ft | 380 kts | 207° |
| 2026-05-01 11:01 | 31.31783 | -97.43105 | 26984 ft | 381 kts | 207° |
| 2026-05-01 11:01 | 31.29317 | -97.44261 | 27158 ft | 384 kts | 207° |
| 2026-05-01 11:01 | 31.27668 | -97.45034 | 27276 ft | 386 kts | 207° |
| 2026-05-01 11:01 | 31.25174 | -97.46201 | 27560 ft | 386 kts | 207° |
| 2026-05-01 11:02 | 31.22674 | -97.47369 | 27850 ft | 387 kts | 207° |
| 2026-05-01 11:02 | 31.20170 | -97.48539 | 28099 ft | 389 kts | 207° |
| 2026-05-01 11:02 | 31.16830 | -97.50100 | 28376 ft | 390 kts | 207° |
| 2026-05-01 11:02 | 31.15125 | -97.50897 | 28562 ft | 391 kts | 207° |
| 2026-05-01 11:03 | 31.12629 | -97.52062 | 28824 ft | 392 kts | 207° |
| 2026-05-01 11:03 | 31.10083 | -97.53249 | 29085 ft | 394 kts | 207° |
| 2026-05-01 11:03 | 31.07535 | -97.54437 | 29348 ft | 395 kts | 207° |
| 2026-05-01 11:03 | 31.04980 | -97.55628 | 29611 ft | 397 kts | 207° |
| 2026-05-01 11:04 | 31.02416 | -97.56821 | 29893 ft | 398 kts | 207° |
| 2026-05-01 11:04 | 30.97219 | -97.59243 | 30121 ft | 406 kts | 207° |
| 2026-05-01 11:04 | 30.94586 | -97.60466 | 30350 ft | 407 kts | 207° |
| 2026-05-01 11:05 | 30.91956 | -97.61685 | 30644 ft | 408 kts | 207° |
| 2026-05-01 11:05 | 30.89314 | -97.62911 | 30884 ft | 409 kts | 207° |
| 2026-05-01 11:05 | 30.86665 | -97.64140 | 30951 ft | 411 kts | 207° |
| 2026-05-01 11:06 | 30.81362 | -97.66597 | 30961 ft | 409 kts | 207° |
| 2026-05-01 11:06 | 30.76072 | -97.69046 | 30973 ft | 409 kts | 207° |
| 2026-05-01 11:07 | 30.68121 | -97.72725 | 30970 ft | 414 kts | 207° |
| 2026-05-01 11:07 | 30.62776 | -97.75191 | 30972 ft | 412 kts | 207° |
| 2026-05-01 11:08 | 30.57518 | -97.77793 | 30967 ft | 409 kts | 212° |
| 2026-05-01 11:08 | 30.52719 | -97.81221 | 30479 ft | 402 kts | 217° |
| 2026-05-01 11:09 | 30.50371 | -97.82977 | 30099 ft | 400 kts | 217° |
| 2026-05-01 11:09 | 30.48038 | -97.84712 | 29972 ft | 397 kts | 217° |
| 2026-05-01 11:09 | 30.45712 | -97.86439 | 29972 ft | 398 kts | 217° |
| 2026-05-01 11:10 | 30.38649 | -97.91672 | 29970 ft | 403 kts | 216° |
| 2026-05-01 11:10 | 30.33927 | -97.95163 | 29962 ft | 402 kts | 217° |
| 2026-05-01 11:11 | 30.29211 | -97.98649 | 29954 ft | 404 kts | 216° |
| 2026-05-01 11:11 | 30.24488 | -98.02135 | 29946 ft | 405 kts | 216° |
| 2026-05-01 11:12 | 30.19735 | -98.05637 | 29935 ft | 405 kts | 216° |
| 2026-05-01 11:12 | 30.14979 | -98.09139 | 29938 ft | 405 kts | 216° |
| 2026-05-01 11:13 | 30.10177 | -98.12671 | 29939 ft | 412 kts | 215° |
| 2026-05-01 11:13 | 30.05336 | -98.16227 | 29939 ft | 412 kts | 215° |
| 2026-05-01 11:14 | 30.00505 | -98.19770 | 29942 ft | 411 kts | 215° |
| 2026-05-01 11:14 | 29.95677 | -98.23308 | 29937 ft | 411 kts | 215° |
| 2026-05-01 11:15 | 29.90849 | -98.26842 | 29946 ft | 411 kts | 215° |
| 2026-05-01 11:15 | 29.86012 | -98.30379 | 29946 ft | 412 kts | 215° |
| 2026-05-01 11:16 | 29.81141 | -98.33937 | 29939 ft | 421 kts | 216° |
| 2026-05-01 11:16 | 29.76166 | -98.37566 | 29921 ft | 423 kts | 216° |
| 2026-05-01 11:17 | 29.71201 | -98.41181 | 29917 ft | 421 kts | 216° |
| 2026-05-01 11:17 | 29.66278 | -98.44760 | 29970 ft | 422 kts | 215° |
| 2026-05-01 11:18 | 29.60946 | -98.47718 | 29982 ft | 429 kts | 206° |
| 2026-05-01 11:18 | 29.55389 | -98.50188 | 29973 ft | 428 kts | 206° |
| 2026-05-01 11:19 | 29.49841 | -98.52692 | 29870 ft | 429 kts | 207° |
| 2026-05-01 11:19 | 29.44277 | -98.55199 | 29870 ft | 429 kts | 207° |
| 2026-05-01 11:20 | 29.38722 | -98.57696 | 29870 ft | 429 kts | 207° |
| 2026-05-01 11:20 | 29.33165 | -98.60191 | 29869 ft | 429 kts | 207° |
| 2026-05-01 11:21 | 29.27609 | -98.62682 | 29869 ft | 429 kts | 207° |
| 2026-05-01 11:21 | 29.22054 | -98.65170 | 29888 ft | 428 kts | 208° |
| 2026-05-01 11:22 | 29.16506 | -98.67653 | 29884 ft | 428 kts | 208° |
| 2026-05-01 11:22 | 29.10990 | -98.70118 | 29909 ft | 428 kts | 208° |
| 2026-05-01 11:23 | 29.05444 | -98.72595 | 29914 ft | 427 kts | 207° |
| 2026-05-01 11:23 | 28.99925 | -98.75054 | 29915 ft | 424 kts | 207° |
| 2026-05-01 11:24 | 28.94419 | -98.77505 | 29914 ft | 424 kts | 208° |
| 2026-05-01 11:25 | 28.86156 | -98.81180 | 29908 ft | 425 kts | 208° |
| 2026-05-01 11:25 | 28.77901 | -98.84844 | 29886 ft | 424 kts | 208° |
| 2026-05-01 11:26 | 28.69646 | -98.88503 | 29891 ft | 424 kts | 208° |
| 2026-05-01 11:27 | 28.64179 | -98.90921 | 29893 ft | 423 kts | 208° |
| 2026-05-01 11:27 | 28.58689 | -98.93348 | 29898 ft | 423 kts | 208° |
| 2026-05-01 11:28 | 28.53203 | -98.95771 | 29900 ft | 423 kts | 208° |
| 2026-05-01 11:28 | 28.47714 | -98.98192 | 29901 ft | 423 kts | 208° |
| 2026-05-01 11:29 | 28.39482 | -99.01818 | 29905 ft | 423 kts | 208° |
| 2026-05-01 11:30 | 28.31236 | -99.05445 | 29901 ft | 425 kts | 208° |
| 2026-05-01 11:30 | 28.25711 | -99.07870 | 29903 ft | 426 kts | 208° |
| 2026-05-01 11:31 | 28.20237 | -99.10270 | 29902 ft | 424 kts | 208° |
| 2026-05-01 11:31 | 28.14738 | -99.12678 | 29896 ft | 422 kts | 208° |
| 2026-05-01 11:32 | 28.09253 | -99.15080 | 29889 ft | 423 kts | 208° |
| 2026-05-01 11:32 | 28.03757 | -99.17484 | 29900 ft | 425 kts | 208° |
| 2026-05-01 11:33 | 27.98216 | -99.19905 | 29888 ft | 427 kts | 208° |
| 2026-05-01 11:33 | 27.92674 | -99.22320 | 29892 ft | 426 kts | 208° |
| 2026-05-01 11:34 | 27.87142 | -99.24730 | 29878 ft | 426 kts | 208° |
| 2026-05-01 11:34 | 27.81606 | -99.27140 | 29882 ft | 427 kts | 208° |
| 2026-05-01 11:35 | 27.76066 | -99.29548 | 29878 ft | 426 kts | 208° |
| 2026-05-01 11:35 | 27.70552 | -99.31944 | 29876 ft | 429 kts | 208° |
| 2026-05-01 11:36 | 27.64967 | -99.34367 | 29880 ft | 429 kts | 208° |
| 2026-05-01 11:36 | 27.59405 | -99.36776 | 29879 ft | 428 kts | 208° |
| 2026-05-01 11:37 | 27.53840 | -99.39186 | 29861 ft | 428 kts | 208° |
| 2026-05-01 11:37 | 27.48298 | -99.41643 | 29860 ft | 425 kts | 212° |
| 2026-05-01 11:38 | 27.43190 | -99.44880 | 29860 ft | 420 kts | 217° |
| 2026-05-01 11:38 | 27.38176 | -99.48236 | 29857 ft | 419 kts | 217° |
| 2026-05-01 11:39 | 27.33206 | -99.51547 | 29857 ft | 418 kts | 217° |
| 2026-05-01 11:39 | 27.28203 | -99.54879 | 29854 ft | 418 kts | 217° |
| 2026-05-01 11:40 | 27.23198 | -99.58210 | 29847 ft | 418 kts | 217° |
| 2026-05-01 11:40 | 27.18193 | -99.61536 | 29848 ft | 418 kts | 217° |
| 2026-05-01 11:41 | 27.13188 | -99.64857 | 29832 ft | 418 kts | 217° |
| 2026-05-01 11:41 | 27.08181 | -99.68177 | 29845 ft | 418 kts | 217° |
| 2026-05-01 11:42 | 27.03168 | -99.71497 | 29850 ft | 418 kts | 217° |
| 2026-05-01 11:42 | 26.98158 | -99.74813 | 29844 ft | 418 kts | 217° |
| 2026-05-01 11:43 | 26.93146 | -99.78125 | 29847 ft | 418 kts | 217° |
| 2026-05-01 11:43 | 26.88164 | -99.81414 | 29844 ft | 418 kts | 217° |
| 2026-05-01 11:44 | 26.80624 | -99.86385 | 29843 ft | 416 kts | 217° |
| 2026-05-01 11:44 | 26.75632 | -99.89674 | 29847 ft | 417 kts | 217° |
| 2026-05-01 11:45 | 26.70654 | -99.92949 | 29840 ft | 417 kts | 217° |
| 2026-05-01 11:45 | 26.65659 | -99.96231 | 29848 ft | 417 kts | 217° |
| 2026-05-01 11:46 | 26.60659 | -99.99514 | 29852 ft | 417 kts | 217° |
| 2026-05-01 11:46 | 26.55655 | -100.02796 | 29851 ft | 417 kts | 217° |
| 2026-05-01 11:47 | 26.50651 | -100.06074 | 29823 ft | 417 kts | 217° |
| 2026-05-01 11:47 | 26.45642 | -100.09353 | 29840 ft | 418 kts | 217° |
| 2026-05-01 11:48 | 26.40623 | -100.12634 | 29858 ft | 418 kts | 217° |
| 2026-05-01 11:48 | 26.35647 | -100.15883 | 29855 ft | 416 kts | 217° |
| 2026-05-01 11:49 | 26.30636 | -100.19154 | 29864 ft | 419 kts | 217° |
| 2026-05-01 11:49 | 26.25611 | -100.22429 | 29836 ft | 415 kts | 217° |
| 2026-05-01 11:50 | 26.20638 | -100.25666 | 29844 ft | 414 kts | 217° |
| 2026-05-01 11:50 | 26.15650 | -100.28914 | 29837 ft | 417 kts | 217° |
| 2026-05-01 11:51 | 26.10633 | -100.32174 | 29828 ft | 417 kts | 217° |
| 2026-05-01 11:51 | 26.06474 | -100.34874 | 29845 ft | 416 kts | 217° |
| 2026-05-01 11:52 | 26.01476 | -100.38113 | 29853 ft | 414 kts | 217° |
| 2026-05-01 11:52 | 25.96477 | -100.41356 | 29826 ft | 418 kts | 217° |
| 2026-05-01 11:53 | 25.91462 | -100.44603 | 29834 ft | 416 kts | 217° |
| 2026-05-01 11:53 | 25.86464 | -100.47832 | 29852 ft | 417 kts | 216° |
| 2026-05-01 11:54 | 25.81425 | -100.51093 | 29853 ft | 417 kts | 216° |
| 2026-05-01 11:54 | 25.76412 | -100.54326 | 29853 ft | 417 kts | 216° |
| 2026-05-01 11:55 | 25.71395 | -100.57567 | 29890 ft | 418 kts | 217° |
| 2026-05-01 11:55 | 25.66386 | -100.60798 | 29877 ft | 416 kts | 216° |
| 2026-05-01 11:56 | 25.61371 | -100.64018 | 29947 ft | 416 kts | 216° |
| 2026-05-01 11:56 | 25.56359 | -100.67238 | 29966 ft | 416 kts | 216° |
| 2026-05-01 11:57 | 25.51373 | -100.70443 | 29981 ft | 419 kts | 216° |
| 2026-05-01 11:57 | 25.46324 | -100.73684 | 29989 ft | 419 kts | 216° |
| 2026-05-01 11:58 | 25.41294 | -100.76907 | 29988 ft | 418 kts | 216° |
| 2026-05-01 11:59 | 25.33735 | -100.81745 | 29974 ft | 417 kts | 216° |
| 2026-05-01 11:59 | 25.28701 | -100.84963 | 29912 ft | 419 kts | 216° |
| 2026-05-01 12:00 | 25.21142 | -100.89789 | 29907 ft | 420 kts | 216° |
| 2026-05-01 12:01 | 25.13527 | -100.94650 | 29904 ft | 421 kts | 216° |
| 2026-05-01 12:01 | 25.08491 | -100.97857 | 29903 ft | 421 kts | 216° |
| 2026-05-01 12:02 | 25.03418 | -101.01087 | 29903 ft | 421 kts | 216° |
| 2026-05-01 12:02 | 24.98338 | -101.04317 | 29895 ft | 421 kts | 216° |
| 2026-05-01 12:03 | 24.93259 | -101.07543 | 29895 ft | 421 kts | 216° |
| 2026-05-01 12:03 | 24.88178 | -101.10767 | 29891 ft | 423 kts | 216° |
| 2026-05-01 12:04 | 24.83067 | -101.14009 | 29896 ft | 424 kts | 216° |
| 2026-05-01 12:04 | 24.77953 | -101.17246 | 29889 ft | 423 kts | 216° |
| 2026-05-01 12:05 | 24.72860 | -101.20468 | 29888 ft | 423 kts | 216° |
| 2026-05-01 12:05 | 24.65229 | -101.25292 | 29886 ft | 423 kts | 216° |
| 2026-05-01 12:06 | 24.60122 | -101.28515 | 29884 ft | 424 kts | 216° |
| 2026-05-01 12:06 | 24.55000 | -101.31746 | 29888 ft | 424 kts | 216° |
| 2026-05-01 12:07 | 24.49886 | -101.34968 | 29888 ft | 423 kts | 216° |
| 2026-05-01 12:07 | 24.44779 | -101.38182 | 29889 ft | 423 kts | 216° |
| 2026-05-01 12:08 | 24.39673 | -101.41393 | 29889 ft | 423 kts | 216° |
| 2026-05-01 12:08 | 24.34560 | -101.44606 | 29889 ft | 424 kts | 216° |
| 2026-05-01 12:09 | 24.29446 | -101.47816 | 29897 ft | 423 kts | 216° |
| 2026-05-01 12:09 | 24.24366 | -101.51002 | 29899 ft | 424 kts | 216° |
| 2026-05-01 12:10 | 24.16686 | -101.55812 | 29907 ft | 424 kts | 216° |
| 2026-05-01 12:11 | 24.09006 | -101.60616 | 29903 ft | 423 kts | 216° |
| 2026-05-01 12:11 | 24.03893 | -101.63811 | 29912 ft | 424 kts | 216° |
| 2026-05-01 12:12 | 23.98772 | -101.67008 | 29911 ft | 424 kts | 216° |
| 2026-05-01 12:12 | 23.93646 | -101.70203 | 29903 ft | 424 kts | 216° |
| 2026-05-01 12:13 | 23.88523 | -101.73396 | 29919 ft | 424 kts | 215° |
| 2026-05-01 12:13 | 23.83384 | -101.76594 | 29919 ft | 425 kts | 215° |
| 2026-05-01 12:14 | 23.78291 | -101.79761 | 29922 ft | 424 kts | 215° |
| 2026-05-01 12:14 | 23.73161 | -101.82949 | 29922 ft | 425 kts | 215° |
| 2026-05-01 12:15 | 23.68029 | -101.86136 | 29922 ft | 424 kts | 215° |
| 2026-05-01 12:15 | 23.62892 | -101.89324 | 29922 ft | 424 kts | 215° |
| 2026-05-01 12:16 | 23.57757 | -101.92509 | 29917 ft | 427 kts | 215° |
| 2026-05-01 12:16 | 23.52580 | -101.95708 | 29917 ft | 428 kts | 215° |
| 2026-05-01 12:17 | 23.47409 | -101.98904 | 29919 ft | 427 kts | 215° |
| 2026-05-01 12:17 | 23.42250 | -102.02094 | 29919 ft | 426 kts | 215° |
| 2026-05-01 12:18 | 23.37084 | -102.05286 | 29922 ft | 427 kts | 215° |
| 2026-05-01 12:18 | 23.31920 | -102.08474 | 29920 ft | 426 kts | 215° |
| 2026-05-01 12:19 | 23.26786 | -102.11641 | 29896 ft | 427 kts | 215° |
| 2026-05-01 12:19 | 23.21589 | -102.14844 | 29919 ft | 431 kts | 214° |
| 2026-05-01 12:20 | 23.16376 | -102.18050 | 29919 ft | 430 kts | 214° |
| 2026-05-01 12:20 | 23.11170 | -102.21250 | 29922 ft | 429 kts | 214° |
| 2026-05-01 12:21 | 23.05967 | -102.24447 | 29923 ft | 430 kts | 214° |
| 2026-05-01 12:21 | 23.00751 | -102.27648 | 29928 ft | 430 kts | 214° |
| 2026-05-01 12:22 | 22.95547 | -102.30839 | 29934 ft | 430 kts | 214° |
| 2026-05-01 12:22 | 22.90330 | -102.34035 | 29971 ft | 432 kts | 214° |
| 2026-05-01 12:23 | 22.85093 | -102.37241 | 30004 ft | 432 kts | 214° |
| 2026-05-01 12:23 | 22.79889 | -102.40422 | 30019 ft | 432 kts | 214° |
| 2026-05-01 12:24 | 22.74653 | -102.43621 | 30019 ft | 433 kts | 214° |
| 2026-05-01 12:24 | 22.69402 | -102.46828 | 30013 ft | 433 kts | 214° |
| 2026-05-01 12:25 | 22.61539 | -102.51623 | 29984 ft | 433 kts | 214° |
| 2026-05-01 12:26 | 22.56268 | -102.54836 | 29957 ft | 437 kts | 214° |
| 2026-05-01 12:26 | 22.48329 | -102.59664 | 29957 ft | 436 kts | 214° |
| 2026-05-01 12:27 | 22.40400 | -102.64482 | 29956 ft | 436 kts | 214° |
| 2026-05-01 12:28 | 22.32459 | -102.69302 | 29945 ft | 436 kts | 214° |
| 2026-05-01 12:29 | 22.24524 | -102.74111 | 29946 ft | 438 kts | 213° |
| 2026-05-01 12:29 | 22.16551 | -102.78936 | 29943 ft | 440 kts | 213° |
| 2026-05-01 12:30 | 22.08541 | -102.83777 | 29952 ft | 440 kts | 213° |
| 2026-05-01 12:31 | 22.03205 | -102.86998 | 29947 ft | 440 kts | 213° |
| 2026-05-01 12:31 | 21.97867 | -102.90218 | 29942 ft | 440 kts | 213° |
| 2026-05-01 12:32 | 21.92524 | -102.93439 | 29930 ft | 440 kts | 213° |
| 2026-05-01 12:32 | 21.84478 | -102.98283 | 29939 ft | 442 kts | 213° |
| 2026-05-01 12:33 | 21.79109 | -103.01512 | 29939 ft | 441 kts | 213° |
| 2026-05-01 12:33 | 21.73753 | -103.04730 | 29936 ft | 441 kts | 213° |
| 2026-05-01 12:34 | 21.68389 | -103.07951 | 29949 ft | 442 kts | 213° |
| 2026-05-01 12:34 | 21.63018 | -103.11172 | 29947 ft | 442 kts | 213° |
| 2026-05-01 12:35 | 21.57676 | -103.14373 | 29949 ft | 443 kts | 212° |
| 2026-05-01 12:35 | 21.52286 | -103.17601 | 29951 ft | 443 kts | 212° |
| 2026-05-01 12:36 | 21.46900 | -103.20823 | 29949 ft | 443 kts | 212° |
| 2026-05-01 12:36 | 21.41506 | -103.24048 | 29951 ft | 444 kts | 212° |
| 2026-05-01 12:37 | 21.36114 | -103.27270 | 29953 ft | 443 kts | 212° |
| 2026-05-01 12:37 | 21.30721 | -103.30488 | 29952 ft | 443 kts | 212° |
| 2026-05-01 12:38 | 21.25325 | -103.33707 | 29938 ft | 444 kts | 212° |
| 2026-05-01 12:38 | 21.19919 | -103.36927 | 29953 ft | 445 kts | 212° |
| 2026-05-01 12:39 | 21.14538 | -103.40131 | 29955 ft | 445 kts | 211° |
| 2026-05-01 12:39 | 21.09129 | -103.43348 | 29955 ft | 445 kts | 211° |
| 2026-05-01 12:40 | 21.03710 | -103.46569 | 29959 ft | 445 kts | 211° |
| 2026-05-01 12:40 | 20.98299 | -103.49782 | 29961 ft | 445 kts | 212° |
| 2026-05-01 12:41 | 20.92877 | -103.52998 | 29962 ft | 446 kts | 212° |
| 2026-05-01 12:41 | 20.87443 | -103.56220 | 29962 ft | 446 kts | 212° |
| 2026-05-01 12:42 | 20.82012 | -103.59437 | 29965 ft | 446 kts | 212° |
| 2026-05-01 12:42 | 20.77495 | -103.62110 | 29968 ft | 446 kts | 212° |
| 2026-05-01 12:43 | 20.72065 | -103.65322 | 29972 ft | 446 kts | 212° |
| 2026-05-01 12:43 | 20.66635 | -103.68530 | 29969 ft | 446 kts | 212° |
| 2026-05-01 12:44 | 20.61205 | -103.71736 | 29970 ft | 446 kts | 212° |
| 2026-05-01 12:45 | 20.50317 | -103.78158 | 29969 ft | 448 kts | 211° |
| 2026-05-01 12:45 | 20.44863 | -103.81369 | 29973 ft | 447 kts | 211° |
| 2026-05-01 12:46 | 20.39413 | -103.84576 | 29975 ft | 447 kts | 211° |
| 2026-05-01 12:46 | 20.33963 | -103.87780 | 29975 ft | 447 kts | 211° |
| 2026-05-01 12:47 | 20.28513 | -103.90983 | 29976 ft | 447 kts | 211° |
| 2026-05-01 12:47 | 20.23059 | -103.94186 | 29975 ft | 448 kts | 211° |
| 2026-05-01 12:48 | 20.17591 | -103.97394 | 29973 ft | 450 kts | 211° |
| 2026-05-01 12:48 | 20.12109 | -104.00606 | 29974 ft | 450 kts | 211° |
| 2026-05-01 12:49 | 20.06631 | -104.03814 | 29975 ft | 449 kts | 211° |
| 2026-05-01 12:49 | 20.01190 | -104.06997 | 29980 ft | 449 kts | 211° |
| 2026-05-01 12:50 | 19.95709 | -104.10201 | 29977 ft | 450 kts | 211° |
| 2026-05-01 12:50 | 19.90230 | -104.13402 | 29976 ft | 450 kts | 211° |
| 2026-05-01 12:51 | 19.84731 | -104.16613 | 29968 ft | 452 kts | 210° |
| 2026-05-01 12:52 | 19.76454 | -104.21439 | 29980 ft | 452 kts | 210° |
| 2026-05-01 12:52 | 19.68203 | -104.26247 | 29956 ft | 451 kts | 210° |
| 2026-05-01 12:53 | 19.59978 | -104.31031 | 29945 ft | 452 kts | 210° |
| 2026-05-01 12:54 | 19.54466 | -104.34236 | 29938 ft | 452 kts | 210° |
| 2026-05-01 12:54 | 19.46139 | -104.39071 | 29920 ft | 456 kts | 210° |
| 2026-05-01 12:55 | 19.37805 | -104.43904 | 29919 ft | 455 kts | 210° |
| 2026-05-01 12:56 | 19.32251 | -104.47123 | 29924 ft | 455 kts | 210° |
| 2026-05-01 12:56 | 19.26697 | -104.50340 | 29923 ft | 455 kts | 210° |
| 2026-05-01 12:57 | 19.21176 | -104.53535 | 29901 ft | 455 kts | 210° |
| 2026-05-01 12:57 | 19.13011 | -104.58720 | 29889 ft | 457 kts | 220° |
| 2026-05-01 12:58 | 19.08062 | -104.62930 | 29888 ft | 457 kts | 219° |
| 2026-05-01 12:59 | 19.00606 | -104.69204 | 29900 ft | 456 kts | 219° |
| 2026-05-01 12:59 | 18.93157 | -104.75464 | 29900 ft | 456 kts | 219° |
| 2026-05-01 13:00 | 18.85694 | -104.81729 | 29886 ft | 456 kts | 219° |
| 2026-05-01 13:01 | 18.78199 | -104.88015 | 29896 ft | 461 kts | 219° |
| 2026-05-01 13:02 | 18.70710 | -104.94287 | 29887 ft | 459 kts | 219° |
| 2026-05-01 13:07 | 18.15478 | -105.40320 | 29903 ft | 461 kts | 219° |
| 2026-05-01 13:08 | 18.10438 | -105.44502 | 29896 ft | 463 kts | 219° |
| 2026-05-01 13:08 | 18.05371 | -105.48702 | 29900 ft | 464 kts | 219° |
| 2026-05-01 13:09 | 18.00308 | -105.52896 | 29894 ft | 463 kts | 219° |
| 2026-05-01 13:09 | 17.95261 | -105.57074 | 29900 ft | 462 kts | 219° |
| 2026-05-01 13:10 | 17.90207 | -105.61255 | 29900 ft | 463 kts | 219° |
| 2026-05-01 13:10 | 17.85154 | -105.65432 | 29903 ft | 462 kts | 219° |
| 2026-05-01 13:11 | 17.80101 | -105.69605 | 29901 ft | 462 kts | 219° |
| 2026-05-01 13:11 | 17.75041 | -105.73781 | 29907 ft | 464 kts | 219° |
| 2026-05-01 13:12 | 17.69996 | -105.77941 | 29908 ft | 464 kts | 219° |
| 2026-05-01 13:12 | 17.64924 | -105.82121 | 29908 ft | 464 kts | 219° |
| 2026-05-01 13:13 | 17.59843 | -105.86305 | 29904 ft | 464 kts | 219° |
| 2026-05-01 13:13 | 17.54772 | -105.90479 | 29905 ft | 464 kts | 219° |
| 2026-05-01 13:14 | 17.49696 | -105.94653 | 29905 ft | 463 kts | 219° |
| 2026-05-01 13:14 | 17.44621 | -105.98823 | 29901 ft | 463 kts | 219° |
| 2026-05-01 13:15 | 17.39585 | -106.02958 | 29905 ft | 462 kts | 219° |
| 2026-05-01 13:15 | 17.34522 | -106.07112 | 29912 ft | 462 kts | 219° |
| 2026-05-01 13:16 | 17.29453 | -106.11269 | 29909 ft | 463 kts | 219° |
| 2026-05-01 13:16 | 17.24374 | -106.15430 | 29908 ft | 463 kts | 219° |
| 2026-05-01 13:17 | 17.14214 | -106.23745 | 29910 ft | 464 kts | 219° |
| 2026-05-01 13:18 | 17.06597 | -106.29972 | 29910 ft | 463 kts | 218° |
| 2026-05-01 13:18 | 17.01485 | -106.34147 | 29909 ft | 468 kts | 218° |
| 2026-05-01 13:19 | 16.96364 | -106.38325 | 29910 ft | 465 kts | 218° |
| 2026-05-01 13:20 | 16.88744 | -106.44539 | 29909 ft | 466 kts | 218° |
| 2026-05-01 13:20 | 16.83628 | -106.48708 | 29912 ft | 466 kts | 218° |
| 2026-05-01 13:21 | 16.75956 | -106.54953 | 29911 ft | 466 kts | 218° |
| 2026-05-01 13:21 | 16.70845 | -106.59112 | 29904 ft | 466 kts | 218° |
| 2026-05-01 13:22 | 16.65697 | -106.63301 | 29914 ft | 470 kts | 218° |
| 2026-05-01 13:22 | 16.60538 | -106.67494 | 29913 ft | 470 kts | 218° |
| 2026-05-01 13:23 | 16.55387 | -106.71678 | 29908 ft | 469 kts | 218° |
| 2026-05-01 13:23 | 16.50273 | -106.75828 | 29912 ft | 468 kts | 218° |
| 2026-05-01 13:24 | 16.45131 | -106.79999 | 29911 ft | 469 kts | 218° |
| 2026-05-01 13:25 | 16.37408 | -106.86257 | 29915 ft | 469 kts | 218° |
| 2026-05-01 13:25 | 16.32249 | -106.90435 | 29912 ft | 472 kts | 217° |
| 2026-05-01 13:26 | 16.27055 | -106.94637 | 29907 ft | 473 kts | 218° |
| 2026-05-01 13:26 | 16.21856 | -106.98841 | 29914 ft | 472 kts | 218° |
| 2026-05-01 13:27 | 16.16670 | -107.03031 | 29913 ft | 472 kts | 218° |
| 2026-05-01 13:27 | 16.08887 | -107.09315 | 29914 ft | 472 kts | 217° |
| 2026-05-01 13:28 | 16.01141 | -107.15562 | 29916 ft | 472 kts | 217° |
| 2026-05-01 13:29 | 15.90739 | -107.23940 | 29913 ft | 476 kts | 217° |
| 2026-05-01 13:31 | 15.75028 | -107.36575 | 29917 ft | 476 kts | 217° |
| 2026-05-01 13:32 | 15.61935 | -107.47085 | 29915 ft | 475 kts | 217° |
| 2026-05-01 13:33 | 15.48844 | -107.57575 | 29916 ft | 477 kts | 217° |
| 2026-05-01 13:34 | 15.38354 | -107.65969 | 29915 ft | 477 kts | 217° |
| 2026-05-01 13:35 | 15.31358 | -107.71561 | 29918 ft | 477 kts | 217° |
| 2026-05-01 13:36 | 15.23467 | -107.77863 | 29921 ft | 478 kts | 217° |
| 2026-05-01 13:36 | 15.15555 | -107.84176 | 29919 ft | 478 kts | 217° |
| 2026-05-01 13:37 | 15.10283 | -107.88378 | 29919 ft | 478 kts | 217° |
| 2026-05-01 13:37 | 15.05045 | -107.92550 | 29919 ft | 478 kts | 217° |
| 2026-05-01 13:38 | 14.97126 | -107.98854 | 29918 ft | 478 kts | 217° |
| 2026-05-01 13:39 | 14.91852 | -108.03049 | 29916 ft | 478 kts | 217° |
| 2026-05-01 13:39 | 14.86570 | -108.07247 | 29915 ft | 480 kts | 217° |
| 2026-05-01 13:40 | 14.81266 | -108.11461 | 29918 ft | 481 kts | 217° |
| 2026-05-01 13:40 | 14.75961 | -108.15672 | 29920 ft | 480 kts | 216° |
| 2026-05-01 13:41 | 14.70694 | -108.19851 | 29920 ft | 480 kts | 216° |
| 2026-05-01 13:41 | 14.65389 | -108.24057 | 29919 ft | 480 kts | 216° |
| 2026-05-01 13:42 | 14.60100 | -108.28271 | 29916 ft | 481 kts | 219° |
| 2026-05-01 13:42 | 14.55206 | -108.32974 | 29918 ft | 481 kts | 223° |
| 2026-05-01 13:43 | 14.50328 | -108.37719 | 29918 ft | 483 kts | 222° |
| 2026-05-01 13:43 | 14.45427 | -108.42476 | 29925 ft | 484 kts | 222° |
| 2026-05-01 13:44 | 14.40522 | -108.47234 | 29922 ft | 484 kts | 222° |
| 2026-05-01 13:44 | 14.35618 | -108.51987 | 29922 ft | 484 kts | 222° |
| 2026-05-01 13:45 | 14.30743 | -108.56708 | 29920 ft | 484 kts | 222° |
| 2026-05-01 13:45 | 14.25839 | -108.61455 | 29919 ft | 484 kts | 222° |
| 2026-05-01 13:46 | 14.20935 | -108.66199 | 29918 ft | 484 kts | 222° |
| 2026-05-01 13:46 | 14.16022 | -108.70948 | 29919 ft | 484 kts | 222° |
| 2026-05-01 13:47 | 14.11092 | -108.75711 | 29919 ft | 487 kts | 222° |
| 2026-05-01 13:47 | 14.06150 | -108.80483 | 29922 ft | 486 kts | 222° |
| 2026-05-01 13:48 | 14.01217 | -108.85243 | 29926 ft | 486 kts | 222° |
| 2026-05-01 13:48 | 13.96285 | -108.90000 | 29926 ft | 486 kts | 222° |
| 2026-05-01 13:49 | 13.91380 | -108.94726 | 29925 ft | 486 kts | 222° |
| 2026-05-01 13:49 | 13.86438 | -108.99487 | 29924 ft | 486 kts | 222° |
| 2026-05-01 13:50 | 13.81494 | -109.04245 | 29930 ft | 486 kts | 222° |
| 2026-05-01 13:50 | 13.76555 | -109.08997 | 29929 ft | 486 kts | 221° |
| 2026-05-01 13:51 | 13.71613 | -109.13748 | 29924 ft | 486 kts | 221° |
| 2026-05-01 13:51 | 13.66679 | -109.18488 | 29924 ft | 486 kts | 221° |
| 2026-05-01 13:52 | 13.61772 | -109.23201 | 29929 ft | 486 kts | 221° |
| 2026-05-01 13:52 | 13.56829 | -109.27944 | 29927 ft | 486 kts | 221° |
| 2026-05-01 13:53 | 13.51884 | -109.32687 | 29925 ft | 486 kts | 221° |
| 2026-05-01 13:53 | 13.44473 | -109.39790 | 29928 ft | 486 kts | 221° |
| 2026-05-01 13:54 | 13.39522 | -109.44530 | 29927 ft | 488 kts | 221° |
| 2026-05-01 13:54 | 13.34586 | -109.49255 | 29927 ft | 487 kts | 221° |
| 2026-05-01 13:55 | 13.29603 | -109.54022 | 29927 ft | 486 kts | 221° |
| 2026-05-01 13:55 | 13.24648 | -109.58759 | 29925 ft | 487 kts | 221° |
| 2026-05-01 13:56 | 13.19724 | -109.63463 | 29927 ft | 487 kts | 221° |
| 2026-05-01 13:56 | 13.14764 | -109.68199 | 29928 ft | 487 kts | 221° |
| 2026-05-01 13:57 | 13.09800 | -109.72937 | 29923 ft | 487 kts | 221° |
| 2026-05-01 13:57 | 13.04839 | -109.77668 | 29923 ft | 488 kts | 221° |
| 2026-05-01 13:58 | 12.99858 | -109.82416 | 29929 ft | 489 kts | 221° |
| 2026-05-01 13:58 | 12.94883 | -109.87156 | 29924 ft | 487 kts | 221° |
| 2026-05-01 13:59 | 12.89910 | -109.91891 | 29925 ft | 488 kts | 221° |
| 2026-05-01 13:59 | 12.84933 | -109.96627 | 29923 ft | 488 kts | 221° |
| 2026-05-01 14:00 | 12.79957 | -110.01359 | 29925 ft | 488 kts | 221° |
| 2026-05-01 14:00 | 12.74975 | -110.06095 | 29923 ft | 488 kts | 221° |
| 2026-05-01 14:01 | 12.70016 | -110.10849 | 29936 ft | 487 kts | 221° |
| 2026-05-01 14:01 | 12.64999 | -110.15585 | 30317 ft | 491 kts | 221° |
| 2026-05-01 14:02 | 12.62494 | -110.17953 | 30595 ft | 491 kts | 221° |
| 2026-05-01 14:02 | 12.59978 | -110.20335 | 30833 ft | 493 kts | 221° |
| 2026-05-01 14:02 | 12.57492 | -110.22691 | 31083 ft | 494 kts | 222° |
| 2026-05-01 14:02 | 12.54937 | -110.25114 | 31333 ft | 495 kts | 222° |
| 2026-05-01 14:03 | 12.52407 | -110.27512 | 31583 ft | 496 kts | 222° |
| 2026-05-01 14:03 | 12.49903 | -110.29885 | 31832 ft | 498 kts | 222° |
| 2026-05-01 14:03 | 12.44780 | -110.34739 | 31925 ft | 499 kts | 222° |
| 2026-05-01 14:04 | 12.39727 | -110.39523 | 31928 ft | 498 kts | 222° |
| 2026-05-01 14:04 | 12.35465 | -110.43557 | 31928 ft | 498 kts | 222° |
| 2026-05-01 14:05 | 12.29543 | -110.49157 | 31925 ft | 500 kts | 222° |
| 2026-05-01 14:05 | 12.24438 | -110.53982 | 31926 ft | 500 kts | 222° |
| 2026-05-01 14:06 | 12.19331 | -110.58807 | 31928 ft | 500 kts | 222° |
| 2026-05-01 14:06 | 12.14228 | -110.63626 | 31928 ft | 499 kts | 222° |
| 2026-05-01 14:07 | 12.09119 | -110.68446 | 31925 ft | 500 kts | 222° |
| 2026-05-01 14:08 | 12.01486 | -110.75645 | 31928 ft | 500 kts | 222° |
| 2026-05-01 14:08 | 11.96378 | -110.80460 | 31928 ft | 500 kts | 222° |
| 2026-05-01 14:09 | 11.91406 | -110.85422 | 31931 ft | 500 kts | 227° |
| 2026-05-01 14:09 | 11.86688 | -110.90645 | 31928 ft | 501 kts | 226° |
| 2026-05-01 14:10 | 11.81958 | -110.95858 | 31927 ft | 500 kts | 226° |
| 2026-05-01 14:10 | 11.77227 | -111.01068 | 31928 ft | 500 kts | 226° |
| 2026-05-01 14:11 | 11.72494 | -111.06277 | 31928 ft | 500 kts | 226° |
| 2026-05-01 14:11 | 11.65398 | -111.14079 | 31928 ft | 500 kts | 226° |
| 2026-05-01 14:12 | 11.60703 | -111.19239 | 31928 ft | 499 kts | 226° |
| 2026-05-01 14:12 | 11.55977 | -111.24428 | 31928 ft | 501 kts | 226° |
| 2026-05-01 14:13 | 11.51999 | -111.28795 | 31929 ft | 501 kts | 226° |
| 2026-05-01 14:13 | 11.46488 | -111.34841 | 31926 ft | 501 kts | 226° |
| 2026-05-01 14:14 | 11.41744 | -111.40043 | 31925 ft | 501 kts | 226° |
| 2026-05-01 14:14 | 11.36997 | -111.45246 | 31926 ft | 501 kts | 226° |
| 2026-05-01 14:15 | 11.32247 | -111.50448 | 31923 ft | 501 kts | 226° |
| 2026-05-01 14:15 | 11.27503 | -111.55642 | 31925 ft | 501 kts | 226° |
| 2026-05-01 14:16 | 11.22756 | -111.60835 | 31928 ft | 501 kts | 226° |
| 2026-05-01 14:16 | 11.18032 | -111.66002 | 31927 ft | 503 kts | 226° |
| 2026-05-01 14:17 | 11.13264 | -111.71213 | 31922 ft | 503 kts | 226° |
| 2026-05-01 14:17 | 11.08494 | -111.76425 | 31923 ft | 503 kts | 226° |
| 2026-05-01 14:18 | 11.03725 | -111.81632 | 31926 ft | 501 kts | 226° |
| 2026-05-01 14:18 | 10.99772 | -111.85946 | 31928 ft | 501 kts | 226° |
| 2026-05-01 14:19 | 10.94216 | -111.92007 | 31928 ft | 501 kts | 226° |
| 2026-05-01 14:19 | 10.89459 | -111.97194 | 31928 ft | 501 kts | 226° |
| 2026-05-01 14:20 | 10.82349 | -112.04940 | 31925 ft | 502 kts | 226° |
| 2026-05-01 14:21 | 10.77568 | -112.10147 | 31930 ft | 503 kts | 226° |
| 2026-05-01 14:21 | 10.72788 | -112.15349 | 31931 ft | 502 kts | 226° |
| 2026-05-01 14:22 | 10.65647 | -112.23116 | 31934 ft | 501 kts | 226° |
| 2026-05-01 14:22 | 10.60881 | -112.28297 | 31934 ft | 502 kts | 226° |
| 2026-05-01 14:23 | 10.56917 | -112.32604 | 31935 ft | 502 kts | 226° |
| 2026-05-01 14:23 | 10.52150 | -112.37781 | 31932 ft | 501 kts | 226° |
| 2026-05-01 14:24 | 10.47380 | -112.42959 | 31941 ft | 502 kts | 226° |
| 2026-05-01 14:24 | 10.42598 | -112.48147 | 31935 ft | 504 kts | 225° |
| 2026-05-01 14:25 | 10.37815 | -112.53334 | 31939 ft | 502 kts | 225° |
| 2026-05-01 14:25 | 10.33035 | -112.58515 | 31940 ft | 503 kts | 225° |
| 2026-05-01 14:26 | 10.25861 | -112.66288 | 31939 ft | 503 kts | 225° |
| 2026-05-01 14:27 | 10.21106 | -112.71435 | 31939 ft | 503 kts | 225° |
| 2026-05-01 14:27 | 10.16319 | -112.76615 | 31942 ft | 502 kts | 225° |
| 2026-05-01 14:28 | 10.09166 | -112.84352 | 31936 ft | 499 kts | 225° |
| 2026-05-01 14:28 | 10.04408 | -112.89495 | 31934 ft | 500 kts | 225° |
| 2026-05-01 14:29 | 9.99645 | -112.94642 | 31935 ft | 500 kts | 225° |
| 2026-05-01 14:30 | 9.90122 | -113.04923 | 31937 ft | 500 kts | 225° |
| 2026-05-01 14:31 | 9.82971 | -113.12637 | 31940 ft | 499 kts | 225° |
| 2026-05-01 14:31 | 9.78238 | -113.17741 | 31939 ft | 496 kts | 225° |
| 2026-05-01 14:32 | 9.73535 | -113.22809 | 31938 ft | 497 kts | 225° |
| 2026-05-01 14:32 | 9.68751 | -113.27961 | 31940 ft | 499 kts | 225° |
| 2026-05-01 14:33 | 9.64018 | -113.33058 | 31938 ft | 499 kts | 225° |
| 2026-05-01 14:33 | 9.59260 | -113.38179 | 31938 ft | 499 kts | 225° |
| 2026-05-01 14:34 | 9.54492 | -113.43309 | 31937 ft | 499 kts | 225° |
| 2026-05-01 14:34 | 9.49742 | -113.48417 | 31937 ft | 497 kts | 225° |
| 2026-05-01 14:35 | 9.45005 | -113.53509 | 31933 ft | 497 kts | 225° |
| 2026-05-01 14:35 | 9.40260 | -113.58607 | 31937 ft | 497 kts | 225° |
| 2026-05-01 14:36 | 9.35513 | -113.63704 | 31940 ft | 497 kts | 225° |
| 2026-05-01 14:36 | 9.30756 | -113.68811 | 31939 ft | 499 kts | 225° |
| 2026-05-01 14:37 | 9.26022 | -113.73891 | 31937 ft | 499 kts | 225° |
| 2026-05-01 14:37 | 9.21264 | -113.78995 | 31934 ft | 497 kts | 225° |
| 2026-05-01 14:38 | 9.16519 | -113.84082 | 31938 ft | 497 kts | 225° |
| 2026-05-01 14:38 | 9.11774 | -113.89168 | 31939 ft | 497 kts | 225° |
| 2026-05-01 14:39 | 9.07023 | -113.94258 | 31939 ft | 497 kts | 225° |
| 2026-05-01 14:39 | 9.02275 | -113.99344 | 31935 ft | 497 kts | 225° |
| 2026-05-01 14:40 | 8.97574 | -114.04480 | 31933 ft | 498 kts | 226° |
| 2026-05-01 14:40 | 8.92918 | -114.09679 | 31940 ft | 498 kts | 226° |
| 2026-05-01 14:41 | 8.88265 | -114.14854 | 31940 ft | 497 kts | 226° |
| 2026-05-01 14:41 | 8.83639 | -114.19983 | 31942 ft | 497 kts | 226° |
| 2026-05-01 14:42 | 8.78974 | -114.25151 | 31942 ft | 497 kts | 226° |
| 2026-05-01 14:42 | 8.74314 | -114.30311 | 31938 ft | 497 kts | 226° |
| 2026-05-01 14:43 | 8.69652 | -114.35471 | 31938 ft | 497 kts | 226° |
| 2026-05-01 14:43 | 8.64988 | -114.40632 | 31938 ft | 497 kts | 226° |
| 2026-05-01 14:44 | 8.60327 | -114.45787 | 31942 ft | 497 kts | 226° |
| 2026-05-01 14:44 | 8.53313 | -114.53541 | 31939 ft | 498 kts | 226° |
| 2026-05-01 14:45 | 8.46302 | -114.61288 | 31938 ft | 498 kts | 226° |
| 2026-05-01 14:46 | 8.41655 | -114.66419 | 31939 ft | 498 kts | 226° |
| 2026-05-01 14:46 | 8.34636 | -114.74167 | 31939 ft | 498 kts | 226° |
| 2026-05-01 14:47 | 8.29950 | -114.79336 | 31936 ft | 498 kts | 226° |
| 2026-05-01 14:48 | 8.22936 | -114.87071 | 31935 ft | 497 kts | 226° |
| 2026-05-01 14:48 | 8.15933 | -114.94788 | 31935 ft | 497 kts | 226° |
| 2026-05-01 14:49 | 8.06632 | -115.05033 | 31936 ft | 495 kts | 226° |
| 2026-05-01 14:50 | 7.97321 | -115.15281 | 31936 ft | 495 kts | 226° |
| 2026-05-01 14:51 | 7.90360 | -115.22937 | 31936 ft | 495 kts | 226° |
| 2026-05-01 14:52 | 7.83381 | -115.30609 | 31936 ft | 495 kts | 226° |
| 2026-05-01 14:53 | 7.76404 | -115.38275 | 31932 ft | 494 kts | 226° |
| 2026-05-01 14:53 | 7.71752 | -115.43383 | 31935 ft | 494 kts | 226° |
| 2026-05-01 14:54 | 7.67104 | -115.48486 | 31937 ft | 494 kts | 226° |
| 2026-05-01 14:54 | 7.62454 | -115.53589 | 31934 ft | 494 kts | 226° |
| 2026-05-01 14:55 | 7.57800 | -115.58695 | 31929 ft | 494 kts | 226° |
| 2026-05-01 14:55 | 7.53154 | -115.63791 | 31925 ft | 494 kts | 226° |
| 2026-05-01 14:56 | 7.48513 | -115.68879 | 31934 ft | 491 kts | 226° |
| 2026-05-01 14:56 | 7.43918 | -115.73914 | 31934 ft | 492 kts | 226° |
| 2026-05-01 14:57 | 7.39283 | -115.78992 | 31931 ft | 492 kts | 226° |
| 2026-05-01 14:57 | 7.32330 | -115.86607 | 31930 ft | 492 kts | 226° |
| 2026-05-01 14:58 | 7.27702 | -115.91672 | 31930 ft | 492 kts | 226° |
| 2026-05-01 14:58 | 7.23066 | -115.96746 | 31927 ft | 492 kts | 226° |
| 2026-05-01 14:59 | 7.18439 | -116.01808 | 31923 ft | 491 kts | 226° |
| 2026-05-01 14:59 | 7.13803 | -116.06878 | 31926 ft | 493 kts | 226° |
| 2026-05-01 15:00 | 7.06857 | -116.14471 | 31928 ft | 494 kts | 226° |
| 2026-05-01 15:01 | 7.02209 | -116.19550 | 31928 ft | 493 kts | 226° |
| 2026-05-01 15:01 | 6.97557 | -116.24631 | 31926 ft | 493 kts | 226° |
| 2026-05-01 15:02 | 6.92904 | -116.29713 | 31926 ft | 494 kts | 226° |
| 2026-05-01 15:02 | 6.88243 | -116.34802 | 31929 ft | 495 kts | 226° |
| 2026-05-01 15:03 | 6.83580 | -116.39890 | 31926 ft | 494 kts | 226° |
| 2026-05-01 15:03 | 6.78918 | -116.44976 | 31919 ft | 494 kts | 226° |
| 2026-05-01 15:04 | 6.74259 | -116.50058 | 31926 ft | 494 kts | 226° |
| 2026-05-01 15:04 | 6.69628 | -116.55108 | 31928 ft | 494 kts | 226° |
| 2026-05-01 15:05 | 6.64964 | -116.60191 | 31928 ft | 495 kts | 226° |
| 2026-05-01 15:05 | 6.60286 | -116.65289 | 31928 ft | 496 kts | 226° |
| 2026-05-01 15:06 | 6.55610 | -116.70383 | 31932 ft | 495 kts | 226° |
| 2026-05-01 15:06 | 6.50937 | -116.75472 | 31934 ft | 495 kts | 226° |
| 2026-05-01 15:07 | 6.46257 | -116.80567 | 31931 ft | 495 kts | 226° |
| 2026-05-01 15:07 | 6.41580 | -116.85658 | 31930 ft | 495 kts | 226° |
| 2026-05-01 15:08 | 6.36898 | -116.90752 | 31934 ft | 497 kts | 226° |
| 2026-05-01 15:08 | 6.32203 | -116.95859 | 31930 ft | 497 kts | 226° |
| 2026-05-01 15:09 | 6.27544 | -117.00926 | 31930 ft | 497 kts | 226° |
| 2026-05-01 15:09 | 6.22851 | -117.06028 | 31930 ft | 497 kts | 226° |
| 2026-05-01 15:10 | 6.18157 | -117.11130 | 31933 ft | 497 kts | 226° |
| 2026-05-01 15:10 | 6.11119 | -117.18778 | 31933 ft | 497 kts | 226° |
| 2026-05-01 15:11 | 6.04045 | -117.26389 | 31930 ft | 496 kts | 225° |
| 2026-05-01 15:12 | 5.99320 | -117.31441 | 31933 ft | 496 kts | 225° |
| 2026-05-01 15:12 | 5.92234 | -117.39029 | 31933 ft | 496 kts | 226° |
| 2026-05-01 15:14 | 5.80403 | -117.51568 | 31931 ft | 495 kts | 225° |
| 2026-05-01 15:14 | 5.73235 | -117.59048 | 31935 ft | 496 kts | 225° |
| 2026-05-01 15:15 | 5.63689 | -117.69032 | 31933 ft | 495 kts | 225° |
| 2026-05-01 15:16 | 5.54945 | -117.78172 | 31933 ft | 495 kts | 225° |
| 2026-05-01 15:18 | 5.43007 | -117.90645 | 31931 ft | 495 kts | 225° |
| 2026-05-01 15:19 | 5.33466 | -118.00608 | 31929 ft | 494 kts | 225° |
| 2026-05-01 15:19 | 5.26313 | -118.08073 | 31927 ft | 495 kts | 225° |
| 2026-05-01 15:20 | 5.19148 | -118.15549 | 31931 ft | 496 kts | 225° |
| 2026-05-01 15:21 | 5.14372 | -118.20531 | 31928 ft | 495 kts | 225° |
| 2026-05-01 15:21 | 5.09625 | -118.25481 | 31928 ft | 495 kts | 225° |
| 2026-05-01 15:22 | 5.02462 | -118.32949 | 31927 ft | 495 kts | 225° |
| 2026-05-01 15:22 | 4.97679 | -118.37934 | 31924 ft | 496 kts | 225° |
| 2026-05-01 15:23 | 4.92899 | -118.42915 | 31925 ft | 495 kts | 225° |
| 2026-05-01 15:23 | 4.88115 | -118.47899 | 31925 ft | 495 kts | 225° |
| 2026-05-01 15:24 | 4.83336 | -118.52877 | 31925 ft | 496 kts | 225° |
| 2026-05-01 15:24 | 4.78553 | -118.57858 | 31925 ft | 496 kts | 225° |
| 2026-05-01 15:25 | 4.73768 | -118.62840 | 31928 ft | 496 kts | 225° |
| 2026-05-01 15:25 | 4.68988 | -118.67814 | 31927 ft | 496 kts | 225° |
| 2026-05-01 15:26 | 4.64198 | -118.72799 | 31924 ft | 496 kts | 225° |
| 2026-05-01 15:26 | 4.59411 | -118.77780 | 31925 ft | 496 kts | 225° |
| 2026-05-01 15:27 | 4.54654 | -118.82729 | 31928 ft | 496 kts | 225° |
| 2026-05-01 15:28 | 4.47439 | -118.90232 | 31925 ft | 496 kts | 225° |
| 2026-05-01 15:28 | 4.42684 | -118.95176 | 31924 ft | 496 kts | 225° |
| 2026-05-01 15:29 | 4.35492 | -119.02652 | 31925 ft | 496 kts | 225° |
| 2026-05-01 15:30 | 4.25944 | -119.12572 | 31928 ft | 495 kts | 225° |
| 2026-05-01 15:31 | 4.11591 | -119.27480 | 31926 ft | 494 kts | 225° |
| 2026-05-01 15:32 | 4.02046 | -119.37389 | 31921 ft | 494 kts | 225° |
| 2026-05-01 15:34 | 3.87757 | -119.52216 | 31922 ft | 492 kts | 225° |